createdAt,value
2019-03-27T00:00:52.717Z,41.54
2019-03-27T00:01:52.579Z,41.54
2019-03-27T00:02:52.613Z,41.55
2019-03-27T00:03:52.520Z,41.57
2019-03-27T00:04:52.611Z,41.61
2019-03-27T00:05:52.626Z,41.54
2019-03-27T00:06:52.664Z,41.58
2019-03-27T00:07:52.587Z,41.54
2019-03-27T00:08:52.697Z,41.62
2019-03-27T00:09:52.814Z,41.61
2019-03-27T00:10:52.701Z,41.59
2019-03-27T00:11:52.531Z,41.58
2019-03-27T00:12:52.574Z,41.63
2019-03-27T00:13:52.574Z,41.67
2019-03-27T00:14:52.560Z,41.63
2019-03-27T00:15:52.651Z,41.64
2019-03-27T00:16:52.690Z,41.66
2019-03-27T00:17:52.607Z,41.66
2019-03-27T00:18:52.596Z,41.62
2019-03-27T00:19:52.637Z,41.61
2019-03-27T00:20:52.607Z,41.57
2019-03-27T00:21:52.768Z,41.64
2019-03-27T00:22:52.597Z,41.65
2019-03-27T00:23:52.782Z,41.62
2019-03-27T00:24:52.707Z,41.68
2019-03-27T00:25:52.705Z,41.67
2019-03-27T00:26:52.477Z,41.63
2019-03-27T00:27:52.756Z,41.62
2019-03-27T00:28:52.747Z,41.66
2019-03-27T00:29:52.720Z,41.67
2019-03-27T00:30:52.787Z,41.62
2019-03-27T00:31:54.422Z,41.73
2019-03-27T00:32:52.482Z,41.67
2019-03-27T00:33:52.633Z,41.7
2019-03-27T00:34:52.879Z,41.7
2019-03-27T00:35:52.520Z,41.73
2019-03-27T00:36:52.529Z,41.71
2019-03-27T00:37:52.644Z,41.66
2019-03-27T00:38:52.580Z,41.71
2019-03-27T00:39:52.636Z,41.72
2019-03-27T00:40:52.624Z,41.71
2019-03-27T00:41:52.731Z,41.74
2019-03-27T00:42:52.640Z,41.73
2019-03-27T00:43:52.652Z,41.75
2019-03-27T00:44:52.652Z,41.71
2019-03-27T00:45:52.733Z,41.73
2019-03-27T00:46:52.685Z,41.76
2019-03-27T00:47:52.808Z,41.75
2019-03-27T00:48:52.506Z,41.78
2019-03-27T00:49:52.614Z,41.73
2019-03-27T00:50:52.538Z,41.73
2019-03-27T00:51:52.454Z,41.78
2019-03-27T00:52:52.953Z,41.78
2019-03-27T00:53:52.591Z,41.77
2019-03-27T00:54:52.589Z,41.83
2019-03-27T00:55:52.563Z,41.77
2019-03-27T00:56:52.665Z,41.8
2019-03-27T00:57:52.534Z,41.77
2019-03-27T00:58:52.620Z,41.78
2019-03-27T00:59:52.641Z,41.82
2019-03-27T01:00:52.673Z,41.77
2019-03-27T01:01:52.664Z,41.75
2019-03-27T01:02:52.680Z,41.78
2019-03-27T01:03:52.699Z,41.79
2019-03-27T01:04:52.805Z,41.74
2019-03-27T01:05:52.480Z,41.78
2019-03-27T01:06:52.498Z,41.8
2019-03-27T01:07:52.562Z,41.79
2019-03-27T01:08:52.586Z,41.8
2019-03-27T01:09:52.654Z,41.79
2019-03-27T01:10:52.583Z,41.79
2019-03-27T01:11:52.533Z,41.78
2019-03-27T01:12:52.639Z,41.81
2019-03-27T01:13:52.488Z,41.76
2019-03-27T01:14:52.735Z,41.84
2019-03-27T01:15:52.581Z,41.79
2019-03-27T01:16:53.810Z,41.84
2019-03-27T01:17:52.663Z,41.85
2019-03-27T01:18:52.641Z,41.85
2019-03-27T01:19:52.620Z,41.84
2019-03-27T01:20:52.639Z,41.79
2019-03-27T01:21:52.847Z,41.86
2019-03-27T01:22:52.558Z,41.84
2019-03-27T01:23:52.815Z,41.82
2019-03-27T01:24:52.480Z,41.8
2019-03-27T01:25:52.589Z,41.82
2019-03-27T01:26:55.260Z,41.85
2019-03-27T01:27:52.629Z,41.86
2019-03-27T01:28:52.524Z,41.86
2019-03-27T01:29:52.452Z,41.82
2019-03-27T01:30:52.573Z,41.84
2019-03-27T01:31:52.573Z,41.85
2019-03-27T01:32:52.445Z,41.81
2019-03-27T01:33:52.715Z,41.82
2019-03-27T01:34:52.751Z,41.83
2019-03-27T01:35:52.718Z,41.86
2019-03-27T01:36:52.973Z,41.87
2019-03-27T01:37:52.639Z,41.85
2019-03-27T01:38:52.682Z,41.88
2019-03-27T01:39:52.710Z,41.9
2019-03-27T01:40:52.445Z,41.87
2019-03-27T01:41:52.776Z,41.86
2019-03-27T01:42:52.737Z,41.9
2019-03-27T01:43:52.449Z,41.91
2019-03-27T01:44:52.485Z,41.87
2019-03-27T01:45:53.748Z,41.88
2019-03-27T01:46:52.575Z,41.9
2019-03-27T01:47:52.462Z,41.84
2019-03-27T01:48:52.516Z,41.88
2019-03-27T01:49:52.508Z,41.88
2019-03-27T01:50:52.523Z,41.87
2019-03-27T01:51:52.653Z,41.88
2019-03-27T01:52:52.565Z,41.91
2019-03-27T01:53:52.738Z,41.91
2019-03-27T01:54:52.569Z,41.92
2019-03-27T01:55:52.675Z,41.91
2019-03-27T01:56:52.464Z,41.88
2019-03-27T01:57:53.139Z,41.89
2019-03-27T01:58:52.572Z,41.92
2019-03-27T01:59:52.663Z,41.88
2019-03-27T02:00:52.427Z,41.91
2019-03-27T02:01:52.721Z,41.91
2019-03-27T02:02:52.462Z,41.9
2019-03-27T02:03:52.490Z,41.89
2019-03-27T02:04:52.526Z,41.89
2019-03-27T02:05:52.492Z,41.88
2019-03-27T02:06:52.528Z,41.93
2019-03-27T02:07:52.584Z,41.89
2019-03-27T02:08:52.524Z,41.92
2019-03-27T02:09:52.640Z,41.9
2019-03-27T02:10:52.593Z,41.89
2019-03-27T02:11:52.622Z,41.89
2019-03-27T02:12:52.710Z,41.92
2019-03-27T02:13:52.586Z,41.93
2019-03-27T02:14:52.803Z,41.89
2019-03-27T02:16:07.819Z,41.94
2019-03-27T02:16:52.787Z,41.93
2019-03-27T02:17:52.781Z,41.93
2019-03-27T02:18:52.798Z,41.94
2019-03-27T02:19:53.127Z,41.94
2019-03-27T02:20:52.834Z,41.91
2019-03-27T02:21:52.621Z,41.91
2019-03-27T02:22:52.503Z,41.91
2019-03-27T02:23:52.463Z,41.94
2019-03-27T02:24:52.464Z,41.95
2019-03-27T02:25:52.418Z,41.87
2019-03-27T02:26:52.540Z,41.93
2019-03-27T02:27:52.491Z,41.9
2019-03-27T02:28:52.614Z,41.91
2019-03-27T02:29:52.425Z,41.9
2019-03-27T02:30:52.572Z,41.94
2019-03-27T02:31:52.658Z,41.88
2019-03-27T02:32:52.773Z,41.9
2019-03-27T02:33:52.635Z,41.91
2019-03-27T02:34:52.716Z,41.93
2019-03-27T02:35:52.637Z,41.93
2019-03-27T02:36:52.654Z,41.93
2019-03-27T02:37:52.672Z,41.96
2019-03-27T02:38:52.785Z,41.95
2019-03-27T02:39:52.679Z,41.89
2019-03-27T02:40:52.808Z,41.98
2019-03-27T02:41:52.493Z,41.95
2019-03-27T02:42:52.622Z,41.96
2019-03-27T02:43:52.551Z,41.92
2019-03-27T02:44:52.736Z,41.93
2019-03-27T02:45:52.451Z,41.95
2019-03-27T02:46:52.583Z,41.89
2019-03-27T02:47:52.685Z,41.95
2019-03-27T02:48:52.619Z,41.96
2019-03-27T02:49:53.455Z,41.92
2019-03-27T02:50:52.661Z,41.97
2019-03-27T02:51:52.760Z,41.91
2019-03-27T02:52:52.431Z,41.91
2019-03-27T02:53:52.726Z,41.93
2019-03-27T02:54:52.722Z,41.91
2019-03-27T02:55:52.664Z,41.92
2019-03-27T02:56:52.441Z,41.92
2019-03-27T02:57:52.716Z,41.94
2019-03-27T02:58:52.770Z,41.93
2019-03-27T02:59:52.480Z,41.92
2019-03-27T03:00:52.488Z,41.94
2019-03-27T03:01:53.008Z,41.92
2019-03-27T03:02:52.473Z,41.92
2019-03-27T03:03:52.541Z,41.98
2019-03-27T03:04:52.636Z,41.96
2019-03-27T03:05:52.836Z,41.91
2019-03-27T03:06:52.608Z,41.96
2019-03-27T03:07:52.563Z,41.96
2019-03-27T03:08:52.430Z,41.89
2019-03-27T03:09:52.641Z,41.97
2019-03-27T03:10:52.749Z,41.92
2019-03-27T03:11:52.648Z,41.97
2019-03-27T03:12:52.708Z,41.93
2019-03-27T03:13:52.802Z,41.96
2019-03-27T03:14:52.988Z,41.92
2019-03-27T03:15:52.722Z,41.95
2019-03-27T03:16:52.465Z,41.97
2019-03-27T03:17:52.591Z,41.96
2019-03-27T03:18:52.661Z,41.92
2019-03-27T03:19:52.595Z,41.92
2019-03-27T03:20:52.647Z,41.93
2019-03-27T03:21:52.685Z,41.95
2019-03-27T03:22:52.697Z,41.92
2019-03-27T03:23:53.531Z,41.94
2019-03-27T03:24:52.650Z,41.92
2019-03-27T03:25:52.845Z,41.95
2019-03-27T03:26:52.670Z,41.96
2019-03-27T03:27:52.939Z,41.95
2019-03-27T03:28:52.683Z,41.95
2019-03-27T03:29:52.654Z,41.99
2019-03-27T03:30:52.827Z,41.98
2019-03-27T03:31:52.460Z,41.98
2019-03-27T03:32:52.963Z,41.96
2019-03-27T03:33:52.735Z,42
2019-03-27T03:34:52.497Z,41.95
2019-03-27T03:35:52.833Z,41.99
2019-03-27T03:36:52.500Z,41.96
2019-03-27T03:37:52.510Z,42
2019-03-27T03:38:52.663Z,41.94
2019-03-27T03:39:52.550Z,41.96
2019-03-27T03:40:53.207Z,41.95
2019-03-27T03:41:52.518Z,42
2019-03-27T03:42:52.546Z,41.98
2019-03-27T03:43:52.490Z,41.97
2019-03-27T03:44:52.637Z,41.99
2019-03-27T03:45:54.425Z,41.95
2019-03-27T03:47:00.999Z,41.95
2019-03-27T03:47:52.559Z,41.99
2019-03-27T03:48:52.677Z,41.99
2019-03-27T03:49:52.668Z,41.97
2019-03-27T03:50:52.625Z,41.95
2019-03-27T03:51:52.650Z,41.95
2019-03-27T03:52:52.481Z,41.94
2019-03-27T03:53:52.463Z,41.95
2019-03-27T03:54:52.445Z,41.96
2019-03-27T03:55:52.499Z,41.97
2019-03-27T03:56:52.716Z,41.99
2019-03-27T03:57:52.558Z,41.99
2019-03-27T03:58:52.458Z,41.93
2019-03-27T03:59:52.678Z,41.95
2019-03-27T04:00:52.715Z,41.97
2019-03-27T04:01:52.477Z,41.97
2019-03-27T04:02:52.678Z,42.01
2019-03-27T04:03:52.635Z,42
2019-03-27T04:04:52.672Z,41.97
2019-03-27T04:05:52.866Z,41.99
2019-03-27T04:06:52.915Z,41.96
2019-03-27T04:07:52.713Z,41.96
2019-03-27T04:08:52.971Z,41.99
2019-03-27T04:09:52.445Z,41.96
2019-03-27T04:10:52.566Z,41.97
2019-03-27T04:11:52.957Z,41.99
2019-03-27T04:12:52.505Z,42.01
2019-03-27T04:13:52.531Z,42.02
2019-03-27T04:14:52.483Z,41.98
2019-03-27T04:15:52.495Z,42
2019-03-27T04:16:52.675Z,41.99
2019-03-27T04:17:52.620Z,41.98
2019-03-27T04:18:52.550Z,41.98
2019-03-27T04:19:52.642Z,41.99
2019-03-27T04:20:52.550Z,42.03
2019-03-27T04:21:52.931Z,42.01
2019-03-27T04:22:52.589Z,42.03
2019-03-27T04:23:52.756Z,41.96
2019-03-27T04:24:52.764Z,41.97
2019-03-27T04:26:11.629Z,41.99
2019-03-27T04:26:52.731Z,41.99
2019-03-27T04:27:52.656Z,41.98
2019-03-27T04:28:52.776Z,41.98
2019-03-27T04:29:52.516Z,42.02
2019-03-27T04:30:52.499Z,41.99
2019-03-27T04:31:52.569Z,41.98
2019-03-27T04:32:52.603Z,41.98
2019-03-27T04:33:52.564Z,41.98
2019-03-27T04:34:52.551Z,41.95
2019-03-27T04:35:52.669Z,42.01
2019-03-27T04:36:52.568Z,41.99
2019-03-27T04:37:52.575Z,42.01
2019-03-27T04:38:52.594Z,42.01
2019-03-27T04:39:52.663Z,42
2019-03-27T04:40:52.587Z,42.02
2019-03-27T04:41:52.627Z,41.98
2019-03-27T04:42:52.592Z,42.04
2019-03-27T04:43:52.725Z,42.02
2019-03-27T04:44:52.732Z,42.02
2019-03-27T04:45:52.679Z,42.01
2019-03-27T04:46:52.376Z,41.97
2019-03-27T04:47:52.519Z,41.96
2019-03-27T04:48:52.416Z,41.99
2019-03-27T04:49:52.691Z,41.96
2019-03-27T04:50:53.460Z,41.92
2019-03-27T04:51:52.447Z,41.91
2019-03-27T04:52:52.464Z,41.9
2019-03-27T04:53:52.546Z,41.9
2019-03-27T04:54:52.497Z,41.91
2019-03-27T04:55:52.497Z,41.86
2019-03-27T04:56:52.519Z,41.84
2019-03-27T04:57:52.537Z,41.88
2019-03-27T04:58:52.558Z,41.83
2019-03-27T04:59:52.539Z,41.84
2019-03-27T05:00:52.591Z,41.81
2019-03-27T05:01:52.593Z,41.79
2019-03-27T05:02:52.582Z,41.79
2019-03-27T05:03:52.608Z,41.74
2019-03-27T05:04:52.452Z,41.73
2019-03-27T05:05:52.476Z,41.73
2019-03-27T05:06:52.554Z,41.7
2019-03-27T05:07:52.563Z,41.63
2019-03-27T05:08:52.468Z,41.65
2019-03-27T05:09:52.458Z,41.64
2019-03-27T05:10:52.506Z,41.64
2019-03-27T05:11:52.610Z,41.65
2019-03-27T05:12:52.636Z,41.65
2019-03-27T05:13:52.552Z,41.63
2019-03-27T05:14:52.545Z,41.63
2019-03-27T05:15:52.534Z,41.62
2019-03-27T05:16:52.532Z,41.58
2019-03-27T05:17:52.681Z,41.6
2019-03-27T05:18:52.709Z,41.69
2019-03-27T05:19:52.636Z,41.71
2019-03-27T05:20:52.630Z,41.67
2019-03-27T05:21:52.615Z,41.64
2019-03-27T05:22:52.374Z,41.61
2019-03-27T05:23:52.353Z,41.63
2019-03-27T05:24:52.374Z,41.7
2019-03-27T05:25:52.383Z,41.73
2019-03-27T05:26:52.416Z,41.66
2019-03-27T05:27:52.403Z,41.68
2019-03-27T05:28:52.428Z,41.72
2019-03-27T05:29:52.420Z,41.71
2019-03-27T05:30:52.448Z,41.7
2019-03-27T05:31:52.499Z,41.77
2019-03-27T05:32:52.593Z,41.72
2019-03-27T05:33:52.852Z,41.75
2019-03-27T05:34:52.509Z,41.74
2019-03-27T05:35:52.521Z,41.8
2019-03-27T05:36:52.526Z,41.75
2019-03-27T05:37:52.691Z,41.8
2019-03-27T05:38:52.723Z,41.75
2019-03-27T05:39:52.567Z,41.73
2019-03-27T05:40:52.592Z,41.77
2019-03-27T05:41:52.403Z,41.74
2019-03-27T05:43:01.632Z,41.74
2019-03-27T05:43:52.416Z,41.74
2019-03-27T05:44:52.561Z,41.69
2019-03-27T05:45:52.437Z,41.74
2019-03-27T05:46:52.446Z,41.74
2019-03-27T05:48:00.356Z,41.77
2019-03-27T05:48:52.597Z,41.74
2019-03-27T05:49:52.499Z,41.73
2019-03-27T05:50:52.517Z,41.79
2019-03-27T05:51:52.619Z,41.72
2019-03-27T05:52:52.644Z,41.71
2019-03-27T05:53:52.613Z,41.72
2019-03-27T05:54:52.759Z,41.74
2019-03-27T05:55:52.664Z,41.75
2019-03-27T05:56:52.619Z,41.69
2019-03-27T05:57:52.599Z,41.71
2019-03-27T05:58:52.780Z,41.69
2019-03-27T05:59:52.630Z,41.72
2019-03-27T06:00:52.356Z,41.73
2019-03-27T06:01:52.533Z,41.73
2019-03-27T06:02:52.505Z,41.68
2019-03-27T06:03:52.399Z,41.7
2019-03-27T06:04:52.581Z,41.65
2019-03-27T06:05:52.453Z,41.67
2019-03-27T06:06:52.402Z,41.73
2019-03-27T06:07:52.445Z,41.69
2019-03-27T06:08:52.464Z,41.7
2019-03-27T06:09:52.626Z,41.66
2019-03-27T06:10:52.647Z,41.71
2019-03-27T06:11:52.644Z,41.68
2019-03-27T06:12:52.647Z,41.7
2019-03-27T06:13:52.524Z,41.72
2019-03-27T06:14:52.543Z,41.66
2019-03-27T06:15:52.657Z,41.7
2019-03-27T06:16:52.920Z,41.66
2019-03-27T06:17:52.594Z,41.66
2019-03-27T06:18:52.468Z,41.67
2019-03-27T06:19:52.385Z,41.67
2019-03-27T06:20:52.412Z,41.67
2019-03-27T06:21:52.405Z,41.63
2019-03-27T06:22:52.450Z,41.65
2019-03-27T06:23:52.495Z,41.64
2019-03-27T06:24:52.507Z,41.64
2019-03-27T06:25:52.503Z,41.61
2019-03-27T06:26:52.567Z,41.63
2019-03-27T06:27:52.504Z,41.64
2019-03-27T06:28:52.523Z,41.6
2019-03-27T06:29:52.592Z,41.6
2019-03-27T06:30:52.586Z,41.57
2019-03-27T06:31:52.557Z,41.59
2019-03-27T06:32:52.563Z,41.61
2019-03-27T06:33:52.689Z,41.6
2019-03-27T06:34:52.620Z,41.56
2019-03-27T06:35:52.625Z,41.54
2019-03-27T06:36:52.762Z,41.5
2019-03-27T06:37:53.072Z,41.55
2019-03-27T06:38:52.309Z,41.54
2019-03-27T06:39:52.342Z,41.52
2019-03-27T06:40:52.402Z,41.54
2019-03-27T06:41:52.421Z,41.51
2019-03-27T06:42:52.503Z,41.47
2019-03-27T06:43:52.412Z,41.48
2019-03-27T06:44:52.550Z,41.53
2019-03-27T06:45:52.550Z,41.46
2019-03-27T06:46:52.471Z,41.53
2019-03-27T06:47:52.486Z,41.49
2019-03-27T06:48:52.503Z,41.53
2019-03-27T06:49:52.592Z,41.53
2019-03-27T06:50:52.509Z,41.45
2019-03-27T06:51:52.549Z,41.49
2019-03-27T06:52:52.544Z,41.41
2019-03-27T06:53:52.546Z,41.46
2019-03-27T06:54:52.693Z,41.42
2019-03-27T06:55:52.362Z,41.42
2019-03-27T06:56:52.418Z,41.42
2019-03-27T06:57:52.506Z,41.39
2019-03-27T06:58:55.479Z,41.41
2019-03-27T06:59:52.745Z,41.4
2019-03-27T07:00:52.422Z,41.41
2019-03-27T07:01:52.569Z,41.43
2019-03-27T07:02:52.626Z,41.45
2019-03-27T07:03:52.611Z,41.43
2019-03-27T07:04:52.496Z,41.44
2019-03-27T07:05:52.646Z,41.41
2019-03-27T07:06:52.553Z,41.43
2019-03-27T07:07:52.492Z,41.39
2019-03-27T07:08:52.525Z,41.38
2019-03-27T07:09:52.690Z,41.41
2019-03-27T07:10:52.697Z,41.37
2019-03-27T07:11:52.542Z,41.37
2019-03-27T07:12:52.750Z,41.38
2019-03-27T07:13:52.450Z,41.45
2019-03-27T07:14:52.320Z,41.38
2019-03-27T07:15:52.340Z,41.39
2019-03-27T07:16:52.432Z,41.37
2019-03-27T07:17:52.339Z,41.37
2019-03-27T07:18:52.394Z,41.36
2019-03-27T07:19:52.436Z,41.35
2019-03-27T07:20:52.776Z,41.36
2019-03-27T07:21:52.455Z,41.37
2019-03-27T07:22:52.513Z,41.36
2019-03-27T07:23:52.443Z,41.36
2019-03-27T07:24:52.449Z,41.34
2019-03-27T07:25:52.561Z,41.34
2019-03-27T07:26:52.598Z,41.4
2019-03-27T07:27:52.545Z,41.36
2019-03-27T07:28:52.604Z,41.32
2019-03-27T07:29:52.627Z,41.38
2019-03-27T07:30:52.661Z,41.36
2019-03-27T07:31:52.705Z,41.34
2019-03-27T07:32:52.431Z,41.37
2019-03-27T07:33:52.473Z,41.37
2019-03-27T07:34:52.439Z,41.38
2019-03-27T07:35:52.515Z,41.37
2019-03-27T07:36:52.487Z,41.36
2019-03-27T07:37:52.424Z,41.35
2019-03-27T07:38:52.462Z,41.32
2019-03-27T07:39:52.561Z,41.37
2019-03-27T07:40:52.531Z,41.36
2019-03-27T07:41:52.825Z,41.34
2019-03-27T07:42:52.827Z,41.34
2019-03-27T07:43:52.603Z,41.39
2019-03-27T07:44:52.520Z,41.35
2019-03-27T07:45:52.820Z,41.34
2019-03-27T07:46:52.557Z,41.36
2019-03-27T07:47:52.592Z,41.33
2019-03-27T07:48:54.798Z,41.32
2019-03-27T07:49:52.543Z,41.33
2019-03-27T07:50:52.341Z,41.34
2019-03-27T07:51:52.349Z,41.32
2019-03-27T07:52:52.359Z,41.29
2019-03-27T07:53:52.374Z,41.34
2019-03-27T07:54:52.485Z,41.31
2019-03-27T07:55:52.392Z,41.31
2019-03-27T07:56:52.423Z,41.31
2019-03-27T07:57:52.544Z,41.28
2019-03-27T07:58:52.727Z,41.33
2019-03-27T07:59:52.434Z,41.31
2019-03-27T08:00:52.473Z,41.32
2019-03-27T08:01:52.483Z,41.33
2019-03-27T08:02:52.486Z,41.27
2019-03-27T08:03:52.639Z,41.28
2019-03-27T08:04:52.558Z,41.24
2019-03-27T08:05:52.551Z,41.31
2019-03-27T08:06:52.542Z,41.28
2019-03-27T08:07:52.394Z,41.49
2019-03-27T08:08:52.624Z,41.53
2019-03-27T08:09:52.347Z,41.58
2019-03-27T08:10:52.445Z,41.83
2019-03-27T08:11:52.503Z,41.93
2019-03-27T08:12:52.445Z,42.03
2019-03-27T08:13:52.567Z,42.21
2019-03-27T08:14:52.615Z,42.21
2019-03-27T08:15:52.606Z,42.02
2019-03-27T08:16:52.605Z,42.03
2019-03-27T08:17:52.508Z,42.01
2019-03-27T08:18:52.526Z,42.14
2019-03-27T08:19:52.549Z,42.08
2019-03-27T08:20:52.547Z,42.7
2019-03-27T08:21:52.673Z,42.57
2019-03-27T08:22:52.667Z,42.36
2019-03-27T08:23:52.445Z,42.3
2019-03-27T08:24:52.325Z,42.04
2019-03-27T08:25:52.922Z,42.1
2019-03-27T08:26:52.841Z,42.07
2019-03-27T08:27:52.351Z,42.01
2019-03-27T08:28:52.358Z,41.95
2019-03-27T08:29:52.377Z,42.1
2019-03-27T08:30:52.397Z,41.95
2019-03-27T08:31:52.609Z,41.93
2019-03-27T08:32:52.463Z,42.11
2019-03-27T08:33:52.585Z,41.98
2019-03-27T08:34:52.445Z,42.02
2019-03-27T08:35:52.578Z,42.25
2019-03-27T08:36:52.510Z,42.25
2019-03-27T08:37:52.516Z,41.95
2019-03-27T08:38:52.661Z,41.66
2019-03-27T08:39:52.505Z,41.43
2019-03-27T08:40:52.420Z,41.43
2019-03-27T08:41:52.343Z,41.84
2019-03-27T08:42:52.357Z,41.66
2019-03-27T08:43:52.377Z,41.87
2019-03-27T08:44:52.537Z,41.91
2019-03-27T08:45:52.464Z,41.87
2019-03-27T08:46:52.357Z,41.88
2019-03-27T08:47:52.785Z,41.92
2019-03-27T08:48:52.425Z,41.99
2019-03-27T08:49:52.443Z,41.92
2019-03-27T08:50:52.512Z,41.95
2019-03-27T08:51:52.516Z,42.05
2019-03-27T08:52:52.483Z,41.9
2019-03-27T08:53:52.466Z,41.59
2019-03-27T08:54:52.482Z,41.55
2019-03-27T08:55:52.491Z,41.35
2019-03-27T08:56:52.591Z,41.28
2019-03-27T08:57:52.540Z,41.26
2019-03-27T08:58:52.586Z,40.85
2019-03-27T08:59:52.600Z,41.11
2019-03-27T09:00:52.309Z,40.89
2019-03-27T09:01:52.427Z,40.72
2019-03-27T09:02:52.329Z,40.7
2019-03-27T09:03:52.517Z,40.75
2019-03-27T09:04:52.534Z,40.62
2019-03-27T09:05:52.360Z,40.77
2019-03-27T09:06:52.636Z,40.92
2019-03-27T09:07:52.413Z,41.03
2019-03-27T09:08:52.596Z,41.05
2019-03-27T09:09:53.793Z,41.12
2019-03-27T09:10:52.615Z,41.13
2019-03-27T09:11:52.462Z,41.1
2019-03-27T09:12:52.761Z,41.18
2019-03-27T09:13:52.523Z,41.15
2019-03-27T09:14:52.539Z,41.11
2019-03-27T09:15:52.602Z,41.18
2019-03-27T09:16:52.402Z,41.13
2019-03-27T09:17:52.429Z,41.14
2019-03-27T09:18:52.369Z,41.13
2019-03-27T09:19:52.450Z,41.15
2019-03-27T09:20:52.584Z,41.16
2019-03-27T09:21:52.471Z,41.19
2019-03-27T09:22:52.455Z,41.19
2019-03-27T09:23:52.490Z,41.15
2019-03-27T09:24:52.500Z,41.17
2019-03-27T09:25:52.440Z,41.19
2019-03-27T09:26:52.477Z,41.14
2019-03-27T09:27:52.611Z,41.12
2019-03-27T09:28:52.496Z,41.16
2019-03-27T09:29:52.519Z,41.2
2019-03-27T09:30:52.664Z,41.2
2019-03-27T09:31:52.576Z,41.2
2019-03-27T09:32:52.549Z,41.19
2019-03-27T09:33:52.557Z,41.2
2019-03-27T09:34:52.552Z,41.18
2019-03-27T09:35:53.142Z,41.19
2019-03-27T09:36:52.361Z,41.16
2019-03-27T09:37:52.306Z,41.24
2019-03-27T09:38:52.328Z,41.18
2019-03-27T09:39:52.511Z,41.18
2019-03-27T09:40:52.398Z,41.18
2019-03-27T09:41:52.669Z,41.19
2019-03-27T09:42:52.375Z,41.2
2019-03-27T09:43:52.551Z,41.22
2019-03-27T09:44:52.389Z,41.23
2019-03-27T09:45:52.533Z,41.25
2019-03-27T09:46:52.470Z,41.24
2019-03-27T09:47:52.488Z,41.24
2019-03-27T09:48:52.484Z,41.24
2019-03-27T09:49:52.615Z,41.26
2019-03-27T09:50:52.672Z,41.24
2019-03-27T09:51:52.811Z,41.24
2019-03-27T09:52:52.948Z,41.24
2019-03-27T09:53:53.665Z,41.23
2019-03-27T09:54:52.409Z,41.21
2019-03-27T09:55:52.314Z,41.24
2019-03-27T09:56:52.382Z,41.25
2019-03-27T09:57:52.395Z,41.25
2019-03-27T09:58:52.439Z,41.24
2019-03-27T09:59:52.406Z,41.23
2019-03-27T10:00:52.412Z,41.28
2019-03-27T10:01:52.396Z,41.25
2019-03-27T10:02:52.554Z,41.28
2019-03-27T10:03:52.549Z,41.24
2019-03-27T10:04:56.612Z,41.26
2019-03-27T10:05:52.452Z,41.26
2019-03-27T10:06:52.616Z,41.3
2019-03-27T10:07:52.580Z,41.28
2019-03-27T10:08:52.502Z,41.28
2019-03-27T10:09:52.579Z,41.3
2019-03-27T10:10:52.694Z,41.3
2019-03-27T10:11:52.512Z,41.28
2019-03-27T10:12:52.568Z,41.28
2019-03-27T10:13:52.629Z,41.29
2019-03-27T10:14:52.306Z,41.37
2019-03-27T10:15:52.313Z,41.35
2019-03-27T10:16:52.315Z,41.4
2019-03-27T10:17:52.478Z,41.4
2019-03-27T10:18:52.318Z,41.49
2019-03-27T10:20:04.557Z,41.45
2019-03-27T10:20:52.362Z,41.47
2019-03-27T10:21:52.346Z,41.43
2019-03-27T10:22:52.454Z,41.44
2019-03-27T10:23:52.501Z,41.45
2019-03-27T10:24:52.482Z,41.42
2019-03-27T10:25:52.451Z,41.45
2019-03-27T10:26:52.470Z,41.37
2019-03-27T10:27:52.631Z,41.33
2019-03-27T10:28:52.679Z,41.32
2019-03-27T10:29:52.480Z,41.37
2019-03-27T10:30:52.511Z,41.35
2019-03-27T10:31:52.541Z,41.33
2019-03-27T10:32:52.390Z,41.33
2019-03-27T10:33:52.343Z,41.32
2019-03-27T10:34:52.341Z,41.34
2019-03-27T10:35:52.363Z,41.29
2019-03-27T10:36:52.345Z,41.29
2019-03-27T10:37:52.322Z,41.33
2019-03-27T10:38:52.436Z,41.28
2019-03-27T10:39:52.526Z,41.24
2019-03-27T10:40:52.365Z,41.27
2019-03-27T10:41:52.523Z,41.27
2019-03-27T10:42:52.405Z,41.3
2019-03-27T10:43:52.484Z,41.24
2019-03-27T10:44:52.450Z,41.24
2019-03-27T10:45:52.607Z,41.23
2019-03-27T10:46:52.434Z,41.23
2019-03-27T10:47:52.488Z,41.22
2019-03-27T10:48:53.452Z,41.27
2019-03-27T10:49:52.532Z,41.24
2019-03-27T10:50:52.623Z,41.26
2019-03-27T10:51:52.510Z,41.23
2019-03-27T10:52:52.654Z,41.23
2019-03-27T10:53:52.214Z,41.22
2019-03-27T10:54:52.291Z,41.2
2019-03-27T10:55:52.262Z,41.24
2019-03-27T10:56:52.580Z,41.26
2019-03-27T10:57:52.789Z,41.22
2019-03-27T10:58:52.312Z,41.23
2019-03-27T10:59:52.339Z,41.25
2019-03-27T11:00:52.460Z,41.22
2019-03-27T11:01:52.402Z,41.27
2019-03-27T11:02:52.498Z,41.21
2019-03-27T11:03:52.398Z,41.22
2019-03-27T11:04:52.394Z,41.18
2019-03-27T11:05:52.394Z,41.24
2019-03-27T11:06:52.420Z,41.22
2019-03-27T11:07:52.492Z,41.18
2019-03-27T11:08:52.492Z,41.23
2019-03-27T11:09:52.476Z,41.21
2019-03-27T11:10:52.496Z,41.23
2019-03-27T11:11:52.339Z,41.23
2019-03-27T11:12:52.266Z,41.19
2019-03-27T11:13:52.299Z,41.26
2019-03-27T11:14:52.416Z,41.22
2019-03-27T11:15:52.335Z,41.24
2019-03-27T11:16:52.331Z,41.21
2019-03-27T11:17:52.385Z,41.25
2019-03-27T11:18:52.759Z,41.22
2019-03-27T11:19:52.440Z,41.23
2019-03-27T11:20:52.455Z,41.23
2019-03-27T11:21:52.499Z,41.25
2019-03-27T11:22:52.412Z,41.22
2019-03-27T11:23:52.504Z,41.21
2019-03-27T11:24:52.472Z,41.18
2019-03-27T11:25:52.488Z,41.25
2019-03-27T11:26:52.487Z,41.19
2019-03-27T11:27:52.558Z,41.26
2019-03-27T11:28:52.482Z,41.22
2019-03-27T11:29:52.688Z,41.27
2019-03-27T11:30:52.627Z,41.21
2019-03-27T11:31:52.230Z,41.23
2019-03-27T11:32:52.621Z,41.19
2019-03-27T11:33:52.343Z,41.24
2019-03-27T11:34:52.293Z,41.23
2019-03-27T11:35:52.322Z,41.19
2019-03-27T11:36:52.307Z,41.26
2019-03-27T11:37:52.506Z,41.28
2019-03-27T11:38:52.508Z,41.21
2019-03-27T11:39:52.527Z,41.23
2019-03-27T11:40:52.365Z,41.26
2019-03-27T11:41:52.349Z,41.25
2019-03-27T11:42:53.510Z,41.23
2019-03-27T11:43:55.669Z,41.27
2019-03-27T11:44:52.460Z,41.18
2019-03-27T11:45:52.836Z,41.22
2019-03-27T11:46:52.447Z,41.22
2019-03-27T11:47:52.453Z,41.22
2019-03-27T11:48:52.442Z,41.23
2019-03-27T11:49:52.711Z,41.26
2019-03-27T11:50:52.284Z,41.23
2019-03-27T11:51:52.251Z,41.18
2019-03-27T11:52:52.353Z,41.23
2019-03-27T11:53:52.321Z,41.2
2019-03-27T11:54:52.522Z,41.23
2019-03-27T11:55:52.448Z,41.21
2019-03-27T11:56:52.376Z,41.21
2019-03-27T11:57:52.438Z,41.22
2019-03-27T11:58:52.377Z,41.22
2019-03-27T11:59:54.770Z,41.21
2019-03-27T12:00:55.485Z,41.22
2019-03-27T12:01:52.399Z,41.22
2019-03-27T12:02:52.418Z,41.15
2019-03-27T12:03:52.421Z,41.22
2019-03-27T12:04:52.424Z,41.25
2019-03-27T12:05:52.562Z,41.25
2019-03-27T12:06:52.842Z,41.25
2019-03-27T12:07:52.764Z,41.25
2019-03-27T12:08:52.486Z,41.21
2019-03-27T12:09:52.289Z,41.25
2019-03-27T12:10:52.417Z,41.23
2019-03-27T12:11:52.364Z,41.26
2019-03-27T12:12:52.346Z,41.27
2019-03-27T12:13:52.419Z,41.25
2019-03-27T12:14:52.295Z,41.21
2019-03-27T12:15:52.261Z,41.21
2019-03-27T12:16:52.310Z,41.2
2019-03-27T12:17:52.337Z,41.22
2019-03-27T12:18:53.453Z,41.22
2019-03-27T12:19:52.322Z,41.25
2019-03-27T12:20:59.988Z,41.18
2019-03-27T12:21:55.335Z,41.21
2019-03-27T12:22:58.282Z,41.22
2019-03-27T12:23:52.522Z,41.18
2019-03-27T12:24:52.625Z,41.16
2019-03-27T12:25:55.762Z,41.2
2019-03-27T12:26:52.413Z,41.2
2019-03-27T12:27:52.519Z,41.21
2019-03-27T12:28:52.523Z,41.19
2019-03-27T12:29:52.335Z,41.2
2019-03-27T12:30:52.273Z,41.14
2019-03-27T12:31:52.291Z,41.22
2019-03-27T12:32:52.370Z,41.22
2019-03-27T12:33:52.420Z,41.21
2019-03-27T12:34:52.390Z,41.22
2019-03-27T12:35:52.425Z,41.19
2019-03-27T12:36:52.341Z,41.2
2019-03-27T12:37:52.592Z,41.19
2019-03-27T12:38:52.524Z,41.18
2019-03-27T12:39:52.479Z,41.12
2019-03-27T12:40:52.478Z,41.18
2019-03-27T12:41:52.549Z,41.13
2019-03-27T12:42:52.565Z,41.13
2019-03-27T12:43:52.429Z,41.12
2019-03-27T12:44:52.542Z,41.12
2019-03-27T12:45:52.463Z,41.1
2019-03-27T12:46:52.607Z,41.05
2019-03-27T12:47:52.205Z,41.08
2019-03-27T12:48:52.303Z,41.06
2019-03-27T12:49:52.393Z,41.07
2019-03-27T12:50:52.389Z,41.04
2019-03-27T12:51:52.383Z,41.02
2019-03-27T12:52:52.395Z,41.03
2019-03-27T12:53:52.395Z,41.03
2019-03-27T12:54:52.290Z,40.98
2019-03-27T12:55:52.488Z,40.99